Time;durP1;ratioP1;P1;durP2;ratioP2;P2;SDS_P1;SDS_P2;PMS_P1;PMS_P2;Temp;Humidity;BMP_temperature;BMP_pressure;BME280_temperature;BME280_humidity;BME280_pressure;Samples;Min_cycle;Max_cycle;Signal;HPM_P1;HPM_P2
2021/12/09 00:01:26;;;;;;;;;0.00;0.00;;;;;4.57;66.84;100172.09;5101544;27;47108;-84
2021/12/09 00:03:55;;;;;;;;;0.00;0.00;;;;;4.17;66.40;100097.25;5089752;27;45362;-84
2021/12/09 00:06:27;;;;;;;;;0.00;0.00;;;;;4.60;67.20;100173.88;5096619;27;45504;-84
2021/12/09 00:09:03;;;;;;;;;0.00;0.00;;;;;4.54;66.77;100164.28;5092315;27;45476;-84
2021/12/09 00:11:29;;;;;;;;;0.00;0.00;;;;;4.60;66.58;100157.53;5100125;27;46268;-84
2021/12/09 00:13:55;;;;;;;;;0.00;0.00;;;;;4.64;66.80;100165.38;5091937;27;45486;-83
2021/12/09 00:16:20;;;;;;;;;1.00;1.00;;;;;4.52;66.75;100150.50;5098539;27;45438;-84
2021/12/09 00:18:46;;;;;;;;;1.00;0.50;;;;;4.50;66.95;100146.16;5092804;27;45319;-84
2021/12/09 00:21:11;;;;;;;;;0.00;0.00;;;;;4.62;66.81;100154.16;5100083;27;45490;-84
2021/12/09 00:23:37;;;;;;;;;0.00;0.00;;;;;4.53;66.58;100139.34;5085714;27;45418;-83
2021/12/09 00:26:03;;;;;;;;;0.00;0.00;;;;;4.69;66.79;100160.34;5098907;27;45608;-84
2021/12/09 00:28:28;;;;;;;;;0.00;0.00;;;;;4.60;66.23;100154.97;5094016;27;45491;-83
2021/12/09 00:30:53;;;;;;;;;0.00;0.00;;;;;4.68;67.14;100166.31;5098180;27;45463;-83
2021/12/09 00:33:19;;;;;;;;;0.00;0.00;;;;;4.55;66.93;100147.13;5103765;27;45433;-83
2021/12/09 00:35:46;;;;;;;;;1.00;1.00;;;;;4.30;66.56;100101.03;5098178;27;45377;-83
2021/12/09 00:38:20;;;;;;;;;0.00;0.00;;;;;4.49;66.65;100140.09;5097253;27;45296;-84
2021/12/09 00:40:46;;;;;;;;;0.00;0.00;;;;;4.55;67.07;100171.19;5095863;27;45511;-83
2021/12/09 00:43:12;;;;;;;;;0.00;0.00;;;;;4.33;66.68;100130.25;5086637;27;45472;-83
2021/12/09 00:45:37;;;;;;;;;1.00;0.00;;;;;4.47;66.47;100153.81;5076230;27;45728;-83
2021/12/09 00:48:03;;;;;;;;;0.00;0.00;;;;;4.25;66.98;100135.22;5097113;27;45382;-83
2021/12/09 00:50:28;;;;;;;;;0.00;0.00;;;;;4.19;67.38;100117.91;5093258;27;48053;-84
2021/12/09 00:52:54;;;;;;;;;0.00;0.00;;;;;4.57;66.90;100181.53;5089149;27;45393;-84
2021/12/09 00:55:20;;;;;;;;;0.00;0.00;;;;;4.17;66.65;100127.31;5082894;27;45547;-83
2021/12/09 00:57:46;;;;;;;;;0.00;0.00;;;;;4.38;66.77;100159.59;5100878;27;45439;-84
2021/12/09 01:00:22;;;;;;;;;0.00;0.00;;;;;4.41;66.73;100167.41;5090312;27;48327;-84
2021/12/09 01:02:49;;;;;;;;;0.00;0.00;;;;;4.16;66.98;100121.28;5093122;27;45434;-83
2021/12/09 01:05:15;;;;;;;;;0.00;0.00;;;;;4.47;66.79;100177.84;5099429;27;45528;-82
2021/12/09 01:07:43;;;;;;;;;0.00;0.00;;;;;4.34;67.16;100163.78;5087230;27;45455;-85
2021/12/09 01:10:12;;;;;;;;;0.00;0.00;;;;;4.44;67.48;100167.47;5096574;27;45903;-84
2021/12/09 01:12:37;;;;;;;;;0.00;0.00;;;;;4.42;67.12;100170.03;5088325;27;45331;-83
2021/12/09 01:15:07;;;;;;;;;0.00;0.00;;;;;4.38;66.98;100151.88;5098356;27;45450;-82
2021/12/09 01:17:33;;;;;;;;;0.00;0.00;;;;;4.46;67.45;100170.09;5088402;27;45444;-84
2021/12/09 01:19:59;;;;;;;;;0.00;0.00;;;;;4.50;67.18;100183.09;5078183;28;47321;-84
2021/12/09 01:22:36;;;;;;;;;0.00;0.00;;;;;4.54;67.65;100200.38;5088814;27;45444;-83
2021/12/09 01:25:06;;;;;;;;;0.00;0.00;;;;;4.50;66.83;100177.09;5096613;27;45663;-84
2021/12/09 01:27:34;;;;;;;;;0.00;0.00;;;;;4.49;67.41;100181.34;5086186;27;45350;-83
2021/12/09 01:30:11;;;;;;;;;0.00;0.00;;;;;4.03;66.95;100122.69;5097136;27;45439;-84
2021/12/09 01:32:37;;;;;;;;;0.00;0.00;;;;;4.28;66.72;100158.47;5080966;27;45481;-83
2021/12/09 01:35:04;;;;;;;;;0.00;0.00;;;;;4.37;67.12;100160.41;5092162;27;45453;-83
2021/12/09 01:37:30;;;;;;;;;0.00;0.00;;;;;4.50;67.05;100182.25;5086239;27;45687;-84
2021/12/09 01:39:56;;;;;;;;;0.00;0.00;;;;;4.27;66.92;100144.75;5095018;27;46926;-83
2021/12/09 01:42:21;;;;;;;;;0.00;0.00;;;;;4.34;66.56;100150.03;5089357;27;45433;-83
2021/12/09 01:44:47;;;;;;;;;0.00;0.00;;;;;4.37;67.66;100152.69;5095678;27;45446;-82
2021/12/09 01:47:12;;;;;;;;;0.00;0.00;;;;;4.67;66.92;100193.81;5085212;27;45508;-82
2021/12/09 01:49:38;;;;;;;;;0.00;0.00;;;;;4.55;66.49;100189.25;5098925;27;45402;-84
2021/12/09 01:52:05;;;;;;;;;0.00;0.00;;;;;4.68;67.16;100212.72;5087939;27;45265;-83
2021/12/09 01:54:30;;;;;;;;;0.00;0.00;;;;;4.55;66.99;100196.97;5088357;27;45361;-82
2021/12/09 01:56:56;;;;;;;;;0.00;0.00;;;;;4.49;66.17;100165.88;5103228;27;45650;-83
2021/12/09 01:59:21;;;;;;;;;0.00;0.00;;;;;4.74;66.90;100207.72;5085726;27;45538;-83
2021/12/09 02:01:46;;;;;;;;;0.00;0.00;;;;;4.52;66.85;100184.00;5100444;27;45413;-83
2021/12/09 02:04:12;;;;;;;;;0.00;0.00;;;;;4.61;66.79;100195.38;5094185;27;45333;-82
2021/12/09 02:06:40;;;;;;;;;0.00;0.00;;;;;4.78;66.26;100230.16;5097053;27;45342;-83
2021/12/09 02:09:11;;;;;;;;;0.00;0.00;;;;;4.55;66.51;100190.94;5098932;27;47535;-83
2021/12/09 02:11:36;;;;;;;;;0.00;0.00;;;;;4.61;66.33;100201.41;5085719;27;45358;-82
2021/12/09 02:14:04;;;;;;;;;0.00;0.00;;;;;4.83;66.52;100225.13;5093328;27;45403;-83
2021/12/09 02:16:30;;;;;;;;;0.00;0.00;;;;;4.83;66.47;100212.22;5091998;27;45361;-82
2021/12/09 02:18:56;;;;;;;;;0.00;0.00;;;;;4.77;66.14;100197.50;5097145;27;45295;-82
2021/12/09 02:21:25;;;;;;;;;0.00;0.00;;;;;4.90;66.58;100210.69;5085091;27;45297;-82
2021/12/09 02:24:02;;;;;;;;;0.00;0.00;;;;;4.69;66.71;100183.56;5087300;27;45423;-82
2021/12/09 02:26:35;;;;;;;;;0.00;0.00;;;;;4.54;66.95;100153.13;5094806;27;45283;-84
2021/12/09 02:29:02;;;;;;;;;0.00;0.00;;;;;4.94;65.82;100215.06;5084439;27;45793;-81
2021/12/09 02:31:30;;;;;;;;;0.00;0.00;;;;;4.76;66.07;100185.44;5097222;27;45762;-83
2021/12/09 02:33:56;;;;;;;;;0.00;0.00;;;;;4.87;66.50;100206.31;5096207;27;45389;-83
2021/12/09 02:36:22;;;;;;;;;0.00;0.00;;;;;4.85;65.92;100200.25;5091169;27;45647;-81
2021/12/09 02:38:49;;;;;;;;;0.00;0.00;;;;;4.94;66.35;100213.34;5088198;27;46205;-82
2021/12/09 02:41:19;;;;;;;;;0.00;0.00;;;;;4.76;66.23;100175.13;5081799;27;45428;-82
2021/12/09 02:43:50;;;;;;;;;0.00;0.00;;;;;5.02;66.40;100204.94;5098756;27;45365;-82
2021/12/09 02:46:16;;;;;;;;;0.00;0.00;;;;;4.99;66.49;100202.28;5089831;27;45425;-83
2021/12/09 02:48:43;;;;;;;;;0.00;0.00;;;;;5.06;66.15;100207.59;5089523;27;45380;-82
2021/12/09 02:51:09;;;;;;;;;0.00;0.00;;;;;4.97;66.22;100197.09;5097755;27;45397;-83
2021/12/09 02:53:35;;;;;;;;;0.00;0.00;;;;;4.77;65.89;100163.97;5084856;27;45434;-83
2021/12/09 02:56:02;;;;;;;;;0.00;0.00;;;;;5.03;66.27;100201.50;5083254;28;45450;-83
2021/12/09 02:58:27;;;;;;;;;0.00;0.00;;;;;4.88;65.98;100177.13;5090185;27;46694;-82
2021/12/09 03:01:13;;;;;;;;;0.00;0.00;;;;;4.78;66.64;100163.13;5097489;27;45397;-83
2021/12/09 03:03:49;;;;;;;;;0.00;0.00;;;;;5.08;66.21;100207.63;5079017;27;45307;-83
2021/12/09 03:06:17;;;;;;;;;0.00;0.00;;;;;4.55;65.73;100105.88;5085618;27;45496;-84
2021/12/09 03:08:43;;;;;;;;;0.00;0.00;;;;;5.12;65.56;100206.00;5098859;27;45306;-83
2021/12/09 03:11:16;;;;;;;;;0.50;0.00;;;;;5.37;65.86;100242.69;5085799;27;45438;-84
2021/12/09 03:13:44;;;;;;;;;0.00;0.00;;;;;5.19;65.37;100213.94;5086261;27;45498;-83
2021/12/09 03:16:10;;;;;;;;;0.00;0.00;;;;;5.36;65.46;100243.53;5097498;27;45281;-83
2021/12/09 03:18:44;;;;;;;;;0.00;0.00;;;;;4.99;65.24;100182.50;5078829;27;45542;-83
2021/12/09 03:21:26;;;;;;;;;0.00;0.00;;;;;5.20;65.98;100214.78;5075794;27;45461;-84
2021/12/09 03:23:52;;;;;;;;;0.00;0.00;;;;;4.89;65.14;100165.06;5075956;27;45377;-83
2021/12/09 03:26:25;;;;;;;;;0.00;0.00;;;;;5.29;65.88;100235.66;5089665;27;45409;-83
2021/12/09 03:28:51;;;;;;;;;0.00;0.00;;;;;5.19;65.92;100219.09;5090886;27;46583;-84
2021/12/09 03:31:16;;;;;;;;;0.00;0.00;;;;;5.23;65.36;100225.19;5100846;27;45413;-83
2021/12/09 03:33:41;;;;;;;;;0.00;0.00;;;;;5.35;65.52;100229.75;5075692;27;45424;-83
2021/12/09 03:36:07;;;;;;;;;0.00;0.00;;;;;5.11;65.36;100184.50;5095831;27;45401;-83
2021/12/09 03:38:34;;;;;;;;;0.00;0.00;;;;;5.37;65.80;100224.63;5096553;27;45465;-84
2021/12/09 03:40:59;;;;;;;;;0.00;0.00;;;;;5.27;66.10;100220.97;5086600;27;46347;-83
2021/12/09 03:43:25;;;;;;;;;0.00;0.00;;;;;5.09;65.30;100200.78;5085678;27;45560;-83
2021/12/09 03:45:55;;;;;;;;;0.00;0.00;;;;;5.17;65.50;100225.91;5100828;27;45549;-83
2021/12/09 03:48:24;;;;;;;;;0.00;0.00;;;;;5.34;65.42;100240.91;5092148;27;48165;-83
2021/12/09 03:50:50;;;;;;;;;0.00;0.00;;;;;4.80;65.79;100151.13;5091029;27;45381;-83
2021/12/09 03:53:16;;;;;;;;;0.00;0.00;;;;;5.24;65.51;100221.75;5085933;27;45307;-83
2021/12/09 03:55:41;;;;;;;;;0.00;0.00;;;;;5.19;65.64;100213.06;5086133;27;45399;-83
2021/12/09 03:58:07;;;;;;;;;0.00;0.00;;;;;5.14;65.41;100215.53;5097494;27;45349;-83
2021/12/09 04:00:33;;;;;;;;;0.00;0.00;;;;;5.31;65.68;100254.63;5087514;27;45502;-83
2021/12/09 04:02:58;;;;;;;;;0.00;0.00;;;;;5.20;65.78;100238.00;5087397;27;45475;-83
2021/12/09 04:05:24;;;;;;;;;0.00;0.00;;;;;5.17;65.81;100241.41;5100959;27;45675;-83
2021/12/09 04:07:49;;;;;;;;;0.00;0.00;;;;;4.97;66.09;100217.72;5087413;27;47876;-83
2021/12/09 04:10:15;;;;;;;;;0.00;0.00;;;;;5.28;65.66;100271.75;5095319;27;45482;-83
2021/12/09 04:12:41;;;;;;;;;0.00;0.00;;;;;5.12;65.65;100237.84;5081150;27;45373;-83
2021/12/09 04:15:07;;;;;;;;;0.00;0.00;;;;;5.26;66.03;100256.22;5099189;27;45525;-83
2021/12/09 04:17:32;;;;;;;;;0.00;0.00;;;;;5.13;65.42;100230.97;5082739;27;47384;-83
2021/12/09 04:19:58;;;;;;;;;1.50;0.00;;;;;5.13;66.02;100229.28;5096668;27;45423;-83
2021/12/09 04:22:23;;;;;;;;;0.00;0.00;;;;;5.07;65.58;100219.69;5087016;27;45400;-83
2021/12/09 04:24:50;;;;;;;;;0.00;0.00;;;;;5.26;65.52;100245.91;5097511;27;45334;-83
2021/12/09 04:27:16;;;;;;;;;0.00;0.00;;;;;5.31;65.88;100277.88;5085111;27;47313;-83
2021/12/09 04:29:42;;;;;;;;;0.00;0.00;;;;;5.30;66.13;100275.25;5099637;27;45325;-83
2021/12/09 04:32:08;;;;;;;;;0.00;0.00;;;;;5.15;65.38;100235.31;5083499;27;45470;-83
2021/12/09 04:34:33;;;;;;;;;0.00;0.00;;;;;5.22;65.70;100259.56;5093783;27;45473;-83
2021/12/09 04:36:59;;;;;;;;;1.00;1.00;;;;;5.21;65.40;100265.59;5089818;27;45284;-83
2021/12/09 04:39:25;;;;;;;;;0.00;0.00;;;;;5.27;65.76;100270.84;5094531;27;45322;-83
2021/12/09 04:41:50;;;;;;;;;0.00;0.00;;;;;5.23;65.56;100263.88;5083893;27;45483;-83
2021/12/09 04:44:17;;;;;;;;;0.00;0.00;;;;;5.20;65.91;100274.13;5091753;27;45394;-83
2021/12/09 04:46:42;;;;;;;;;0.00;0.00;;;;;5.18;65.87;100268.94;5088835;27;48100;-83
2021/12/09 04:49:08;;;;;;;;;0.00;0.00;;;;;4.98;65.86;100237.53;5097937;27;46004;-81
2021/12/09 04:51:34;;;;;;;;;0.00;0.00;;;;;5.20;65.61;100272.44;5084941;27;45394;-81
2021/12/09 04:54:00;;;;;;;;;0.00;0.00;;;;;4.94;65.70;100226.25;5083106;27;45186;-81
2021/12/09 04:56:26;;;;;;;;;0.00;0.00;;;;;5.12;65.61;100261.09;5082658;27;45293;-82
2021/12/09 04:58:52;;;;;;;;;0.00;0.00;;;;;5.24;66.23;100275.94;5096647;27;45728;-81
2021/12/09 05:01:18;;;;;;;;;0.00;0.00;;;;;5.23;65.84;100271.63;5077920;27;45347;-83
2021/12/09 05:03:47;;;;;;;;;0.00;0.00;;;;;5.02;65.83;100239.34;5101327;27;45637;-82
2021/12/09 05:06:12;;;;;;;;;0.00;0.00;;;;;5.17;66.04;100261.16;5090419;27;47125;-82
2021/12/09 05:08:44;;;;;;;;;0.00;0.00;;;;;5.14;65.99;100259.38;5091692;27;45271;-83
2021/12/09 05:11:27;;;;;;;;;0.00;0.00;;;;;5.00;65.93;100233.28;5076333;27;45465;-81
2021/12/09 05:13:53;;;;;;;;;0.00;0.00;;;;;5.15;65.15;100242.22;5076086;27;45627;-81
2021/12/09 05:16:18;;;;;;;;;0.00;0.00;;;;;5.30;65.69;100278.69;5087478;27;45384;-81
2021/12/09 05:18:44;;;;;;;;;0.00;0.00;;;;;5.28;66.09;100275.22;5089939;27;45318;-81
2021/12/09 05:21:12;;;;;;;;;0.67;0.00;;;;;5.29;65.93;100276.94;5076060;27;45406;-82
2021/12/09 05:23:38;;;;;;;;;0.00;0.00;;;;;5.09;66.01;100248.09;5085184;27;45284;-82
2021/12/09 05:26:05;;;;;;;;;0.00;0.00;;;;;5.13;65.61;100247.34;5086128;27;46454;-83
2021/12/09 05:28:34;;;;;;;;;0.00;0.00;;;;;5.33;65.84;100280.47;5093366;27;45308;-83
2021/12/09 05:33:44;;;;;;;;;0.00;0.00;;;;;5.20;65.63;100249.22;5098780;27;45431;-82
2021/12/09 05:36:10;;;;;;;;;0.00;0.00;;;;;5.11;66.14;100233.50;5088566;27;47485;-82
2021/12/09 05:38:35;;;;;;;;;0.00;0.00;;;;;5.19;65.84;100244.00;5089178;27;45398;-82
2021/12/09 05:41:00;;;;;;;;;0.00;0.00;;;;;5.28;65.49;100262.31;5087270;27;45534;-83
2021/12/09 05:43:27;;;;;;;;;0.00;0.00;;;;;5.37;65.81;100279.72;5095977;27;45438;-83
2021/12/09 05:45:52;;;;;;;;;0.00;0.00;;;;;5.29;65.83;100278.63;5073638;27;45494;-82
2021/12/09 05:48:17;;;;;;;;;0.00;0.00;;;;;5.25;66.04;100282.88;5093925;27;45286;-83
2021/12/09 05:50:44;;;;;;;;;0.00;0.00;;;;;4.98;65.40;100222.03;5075518;27;45829;-83
2021/12/09 05:53:10;;;;;;;;;0.75;0.00;;;;;5.42;65.67;100298.75;5079962;28;45563;-82
2021/12/09 05:55:36;;;;;;;;;0.00;0.00;;;;;5.41;65.42;100291.84;5081635;28;45406;-82
2021/12/09 05:58:02;;;;;;;;;0.00;0.00;;;;;5.12;65.49;100249.88;5098860;27;45279;-82
2021/12/09 06:00:28;;;;;;;;;0.00;0.00;;;;;5.37;65.80;100297.78;5100708;27;45375;-79
2021/12/09 06:02:53;;;;;;;;;0.00;0.00;;;;;5.35;65.98;100302.03;5091735;27;45503;-79
2021/12/09 06:05:19;;;;;;;;;3.00;0.00;;;;;5.19;65.79;100275.88;5084648;27;45396;-79
2021/12/09 06:07:45;;;;;;;;;0.00;0.00;;;;;5.14;65.92;100259.38;5086856;27;45355;-78
2021/12/09 06:10:11;;;;;;;;;0.00;0.00;;;;;5.05;65.35;100252.31;5089097;27;45437;-79
2021/12/09 06:12:37;;;;;;;;;1.00;0.00;;;;;5.12;66.00;100260.19;5086268;27;45519;-78
2021/12/09 06:15:04;;;;;;;;;0.00;0.00;;;;;5.40;65.91;100304.72;5084411;27;47945;-79
2021/12/09 06:17:30;;;;;;;;;0.00;0.00;;;;;5.26;65.58;100289.78;5098105;27;45343;-78
2021/12/09 06:19:55;;;;;;;;;0.00;0.00;;;;;5.43;65.77;100322.84;5079115;27;45449;-77
2021/12/09 06:22:20;;;;;;;;;0.00;0.00;;;;;5.47;65.61;100313.47;5090972;27;45315;-77
2021/12/09 06:24:46;;;;;;;;;0.00;0.00;;;;;5.40;65.64;100302.13;5089465;27;45345;-77
2021/12/09 06:27:13;;;;;;;;;0.00;0.00;;;;;5.24;65.56;100296.59;5098453;27;45207;-79
2021/12/09 06:29:39;;;;;;;;;0.00;0.00;;;;;5.33;65.81;100314.03;5073433;27;45610;-79
2021/12/09 06:32:05;;;;;;;;;0.00;0.00;;;;;5.22;65.66;100295.72;5082624;27;45558;-79
2021/12/09 06:34:31;;;;;;;;;0.00;0.00;;;;;5.25;65.34;100298.38;5077595;27;45791;-78
2021/12/09 06:36:56;;;;;;;;;0.00;0.00;;;;;5.36;65.96;100315.81;5105820;27;45597;-79
2021/12/09 06:39:21;;;;;;;;;0.00;0.00;;;;;5.35;66.02;100324.38;5071923;27;45696;-78
2021/12/09 06:41:47;;;;;;;;;0.00;0.00;;;;;5.36;65.41;100326.97;5079253;27;45471;-78
2021/12/09 06:44:12;;;;;;;;;0.00;0.00;;;;;5.35;66.00;100325.25;5067386;27;46050;-79
2021/12/09 06:46:38;;;;;;;;;0.00;0.00;;;;;5.33;65.34;100335.53;5070028;27;45382;-79
2021/12/09 06:49:05;;;;;;;;;0.00;0.00;;;;;5.22;65.73;100324.09;5077794;27;45456;-79
2021/12/09 06:51:31;;;;;;;;;0.00;0.00;;;;;5.28;66.00;100337.16;5097441;27;45334;-78
2021/12/09 06:53:56;;;;;;;;;0.00;0.00;;;;;5.11;66.12;100303.19;5078100;27;45721;-77
2021/12/09 06:56:23;;;;;;;;;0.00;0.00;;;;;5.04;66.14;100307.34;5091375;27;45358;-78
2021/12/09 06:58:48;;;;;;;;;0.00;0.00;;;;;4.98;66.34;100302.03;5087221;27;45531;-78
2021/12/09 07:01:14;;;;;;;;;0.00;0.00;;;;;5.11;66.07;100334.16;5065857;27;45620;-79
2021/12/09 07:03:40;;;;;;;;;0.00;0.00;;;;;5.05;65.97;100321.97;5101393;27;48058;-79
2021/12/09 07:06:06;;;;;;;;;0.00;0.00;;;;;5.21;65.52;100337.84;5081841;27;45308;-80
2021/12/09 07:08:41;;;;;;;;;0.00;0.00;;;;;5.01;65.66;100307.25;5068658;27;45465;-82
2021/12/09 07:11:07;;;;;;;;;0.00;0.00;;;;;5.12;65.98;100322.13;5069816;28;45358;-80
2021/12/09 07:13:32;;;;;;;;;0.00;0.00;;;;;5.17;66.10;100323.09;5082037;27;46789;-80
2021/12/09 07:15:59;;;;;;;;;0.00;0.00;;;;;5.26;65.50;100343.09;5077233;27;45347;-80
2021/12/09 07:18:25;;;;;;;;;0.00;0.00;;;;;4.97;65.79;100314.88;5076916;27;45520;-81
2021/12/09 07:20:52;;;;;;;;;2.00;0.00;;;;;4.96;66.06;100305.41;5077071;27;45336;-81
2021/12/09 07:23:17;;;;;;;;;0.00;0.00;;;;;5.02;65.85;100326.19;5064475;27;46231;-84
2021/12/09 07:25:42;;;;;;;;;0.00;0.00;;;;;5.13;65.43;100341.94;5094721;27;45368;-84
2021/12/09 07:28:08;;;;;;;;;0.25;0.00;;;;;5.03;65.68;100341.69;5074091;27;45796;-84
2021/12/09 07:30:33;;;;;;;;;1.00;0.00;;;;;4.87;66.33;100322.38;5087419;27;45431;-84
2021/12/09 07:32:59;;;;;;;;;0.00;0.00;;;;;4.99;66.23;100341.59;5088839;27;45380;-84
2021/12/09 07:35:30;;;;;;;;;1.00;0.00;;;;;4.88;66.16;100328.41;5095450;27;45353;-84
2021/12/09 07:37:55;;;;;;;;;0.00;0.00;;;;;4.89;66.85;100328.47;5076068;27;45444;-83
2021/12/09 07:40:21;;;;;;;;;0.00;0.00;;;;;4.69;66.59;100297.88;5069996;27;45357;-83
2021/12/09 07:42:46;;;;;;;;;0.00;0.00;;;;;4.85;66.49;100329.22;5062503;28;45977;-83
2021/12/09 07:45:13;;;;;;;;;0.00;0.00;;;;;4.88;66.04;100338.75;5095470;27;45291;-83
2021/12/09 07:47:39;;;;;;;;;0.00;0.00;;;;;4.84;66.79;100332.63;5082963;28;45442;-84
2021/12/09 07:50:07;;;;;;;;;0.00;0.00;;;;;4.80;66.17;100329.09;5092284;27;45374;-84
2021/12/09 07:52:33;;;;;;;;;0.00;0.00;;;;;4.73;66.34;100309.16;5092012;27;45383;-84
2021/12/09 07:54:59;;;;;;;;;0.00;0.00;;;;;4.87;65.93;100334.41;5084696;27;45468;-84
2021/12/09 07:57:24;;;;;;;;;0.00;0.00;;;;;4.94;66.08;100349.22;5100764;27;45462;-83
2021/12/09 07:59:49;;;;;;;;;0.00;0.00;;;;;5.02;66.45;100355.44;5084215;27;45368;-83
2021/12/09 08:02:16;;;;;;;;;2.00;0.25;;;;;4.97;65.99;100340.69;5071453;27;45378;-80
2021/12/09 08:04:49;;;;;;;;;0.00;0.00;;;;;5.04;66.07;100351.19;5067397;27;46343;-81
2021/12/09 08:07:19;;;;;;;;;0.00;0.00;;;;;4.81;65.67;100315.34;5077766;27;46682;-81
2021/12/09 08:09:44;;;;;;;;;0.50;0.50;;;;;5.03;66.02;100354.59;5077754;27;46409;-82
2021/12/09 08:12:10;;;;;;;;;0.00;0.00;;;;;4.84;66.55;100324.03;5073204;27;48198;-81
2021/12/09 08:14:35;;;;;;;;;0.00;0.00;;;;;4.92;65.96;100344.03;5079928;27;45276;-79
2021/12/09 08:17:33;;;;;;;;;0.00;0.00;;;;;4.88;66.39;100333.56;5081743;27;45832;-78
2021/12/09 08:19:59;;;;;;;;;0.00;0.00;;;;;5.04;65.89;100363.22;5082236;27;46900;-80
2021/12/09 08:22:25;;;;;;;;;0.00;0.00;;;;;5.06;66.00;100359.84;5076809;27;46352;-79
2021/12/09 08:24:51;;;;;;;;;0.00;0.00;;;;;4.68;66.19;100284.94;5082835;27;45605;-78
2021/12/09 08:27:16;;;;;;;;;0.50;0.50;;;;;5.13;66.07;100339.34;5079233;27;45571;-80
2021/12/09 08:29:42;;;;;;;;;0.00;0.00;;;;;5.13;65.63;100323.88;5084457;27;45350;-80
2021/12/09 08:32:08;;;;;;;;;0.00;0.00;;;;;5.27;65.51;100337.13;5089736;27;46292;-80
2021/12/09 08:34:35;;;;;;;;;0.00;0.00;;;;;5.30;65.59;100348.38;5077716;27;45388;-80
2021/12/09 08:37:01;;;;;;;;;0.00;0.00;;;;;5.24;65.46;100324.13;5070629;27;45500;-80
2021/12/09 08:39:26;;;;;;;;;0.50;0.50;;;;;5.40;65.38;100343.44;5077218;27;45474;-79
2021/12/09 08:41:52;;;;;;;;;0.00;0.00;;;;;5.46;65.18;100356.50;5086083;27;47347;-80
2021/12/09 08:44:23;;;;;;;;;0.50;0.50;;;;;5.45;64.87;100353.03;5083500;27;45454;-79
2021/12/09 08:46:49;;;;;;;;;1.50;0.00;;;;;5.22;65.16;100308.59;5085903;27;45431;-80
2021/12/09 08:49:15;;;;;;;;;0.25;0.00;;;;;5.51;65.30;100354.03;5076758;27;47235;-79
2021/12/09 08:51:41;;;;;;;;;0.00;0.00;;;;;5.62;65.10;100368.06;5080111;27;45728;-79
2021/12/09 08:54:06;;;;;;;;;0.00;0.00;;;;;5.70;64.83;100381.16;5086564;27;45736;-79
2021/12/09 08:56:34;;;;;;;;;0.00;0.00;;;;;5.65;64.59;100380.16;5086028;27;45741;-79
2021/12/09 08:59:02;;;;;;;;;0.00;0.00;;;;;5.23;64.93;100315.50;5071797;27;45725;-79
2021/12/09 09:01:28;;;;;;;;;0.00;0.00;;;;;5.53;64.71;100348.06;5092658;27;46397;-78
2021/12/09 09:03:53;;;;;;;;;0.00;0.00;;;;;5.57;64.12;100349.84;5082183;27;45802;-79
2021/12/09 09:06:19;;;;;;;;;0.00;0.00;;;;;5.66;64.06;100367.28;5081617;27;45853;-79
2021/12/09 09:08:44;;;;;;;;;0.00;0.00;;;;;5.72;64.30;100382.03;5071765;27;45560;-78
2021/12/09 09:11:10;;;;;;;;;0.00;0.00;;;;;5.99;64.23;100406.75;5077145;27;46272;-79
2021/12/09 09:13:35;;;;;;;;;0.00;0.00;;;;;6.01;64.19;100404.22;5076089;27;47181;-79
2021/12/09 09:16:01;;;;;;;;;0.00;0.00;;;;;6.06;64.04;100379.34;5081427;27;45529;-79
2021/12/09 09:18:26;;;;;;;;;0.00;0.00;;;;;6.39;63.55;100417.09;5082456;27;45567;-80
2021/12/09 09:20:51;;;;;;;;;0.00;0.00;;;;;6.52;63.58;100413.06;5078090;27;45973;-81
2021/12/09 09:23:19;;;;;;;;;0.00;0.00;;;;;6.49;63.41;100392.28;5076823;27;45749;-80
2021/12/09 09:25:45;;;;;;;;;0.00;0.00;;;;;6.37;63.02;100377.41;5082680;27;45484;-84
2021/12/09 09:28:11;;;;;;;;;0.00;0.00;;;;;6.60;63.42;100405.44;5094698;27;45460;-79
2021/12/09 09:30:40;;;;;;;;;0.00;0.00;;;;;6.43;62.67;100384.44;5087722;27;45492;-81
2021/12/09 09:33:09;;;;;;;;;0.00;0.00;;;;;6.52;62.31;100417.38;5077382;27;45445;-80
2021/12/09 09:35:36;;;;;;;;;0.00;0.00;;;;;6.21;62.63;100373.63;5075692;27;45397;-79
2021/12/09 09:38:01;;;;;;;;;0.00;0.00;;;;;6.26;63.02;100399.59;5077819;27;45461;-78
2021/12/09 09:40:38;;;;;;;;;0.00;0.00;;;;;6.19;62.94;100386.53;5086768;27;45325;-77
2021/12/09 09:43:13;;;;;;;;;0.00;0.00;;;;;6.28;62.69;100409.13;5078810;27;45274;-79
2021/12/09 09:45:39;;;;;;;;;0.00;0.00;;;;;6.54;62.65;100420.84;5078054;27;45821;-80
2021/12/09 09:48:07;;;;;;;;;0.00;0.00;;;;;6.46;62.80;100400.00;5078699;27;45931;-81
2021/12/09 09:50:33;;;;;;;;;0.00;0.00;;;;;6.68;61.95;100427.16;5084836;27;45486;-79
2021/12/09 09:52:59;;;;;;;;;0.00;0.00;;;;;6.69;62.54;100421.16;5079499;27;45500;-78
2021/12/09 09:55:24;;;;;;;;;0.00;0.00;;;;;6.75;62.15;100440.22;5077542;27;45406;-79
2021/12/09 09:57:51;;;;;;;;;1.00;0.00;;;;;6.84;62.54;100440.41;5086915;27;45552;-81
2021/12/09 10:00:18;;;;;;;;;0.00;0.00;;;;;6.86;62.44;100427.50;5087109;27;45383;-79
2021/12/09 10:02:51;;;;;;;;;1.75;0.00;;;;;6.90;62.26;100426.72;5070733;27;45565;-80
2021/12/09 10:05:16;;;;;;;;;0.00;0.00;;;;;6.81;62.27;100409.28;5066792;27;45381;-80
2021/12/09 10:07:41;;;;;;;;;0.00;0.00;;;;;6.98;61.93;100432.88;5089508;27;45368;-80
2021/12/09 10:10:08;;;;;;;;;0.00;0.00;;;;;7.04;61.56;100417.47;5080588;27;45342;-79
2021/12/09 10:12:34;;;;;;;;;0.50;0.00;;;;;7.04;61.45;100412.31;5068011;27;46310;-78
2021/12/09 10:14:59;;;;;;;;;0.00;0.00;;;;;7.15;61.63;100430.63;5074254;27;45591;-80
2021/12/09 10:17:26;;;;;;;;;0.00;0.00;;;;;7.14;61.53;100423.69;5095553;27;45532;-78
2021/12/09 10:20:05;;;;;;;;;0.00;0.00;;;;;7.24;61.49;100422.16;5076270;27;49293;-80
2021/12/09 10:22:35;;;;;;;;;0.00;0.00;;;;;7.28;61.54;100416.16;5078873;27;45377;-79
2021/12/09 10:25:17;;;;;;;;;0.00;0.00;;;;;7.17;61.71;100412.53;5079645;27;45437;-80
2021/12/09 10:27:45;;;;;;;;;0.00;0.00;;;;;7.18;61.33;100419.44;5069263;27;45582;-79
2021/12/09 10:30:19;;;;;;;;;0.00;0.00;;;;;7.07;61.25;100401.13;5073997;27;45690;-80
2021/12/09 10:32:46;;;;;;;;;1.00;0.00;;;;;7.06;61.62;100396.81;5071736;27;45461;-79
2021/12/09 10:35:15;;;;;;;;;0.00;0.00;;;;;7.07;61.25;100394.25;5069940;27;45560;-81
2021/12/09 10:37:43;;;;;;;;;0.50;0.00;;;;;7.10;61.51;100396.88;5071129;27;46867;-80
2021/12/09 10:40:25;;;;;;;;;0.00;0.00;;;;;7.05;61.32;100385.56;5070430;27;46221;-80
2021/12/09 10:42:57;;;;;;;;;0.00;0.00;;;;;7.04;61.53;100393.31;5069435;27;45506;-81
2021/12/09 10:45:32;;;;;;;;;0.00;0.00;;;;;7.16;61.65;100390.94;5066896;27;45632;-81
2021/12/09 10:48:24;;;;;;;;;0.00;0.00;;;;;7.21;61.21;100391.03;5070151;27;45582;-79
2021/12/09 10:55:58;;;;;;;;;0.00;0.00;;;;;7.27;61.37;100372.13;5075648;27;45523;-80
2021/12/09 10:58:31;;;;;;;;;0.00;0.00;;;;;7.41;61.27;100378.38;5073882;27;45593;-80
2021/12/09 11:01:04;;;;;;;;;0.00;0.00;;;;;7.44;61.15;100380.19;5066525;27;48094;-81
2021/12/09 11:03:33;;;;;;;;;1.00;0.00;;;;;7.34;60.68;100379.13;5078882;27;45396;-81
2021/12/09 11:06:00;;;;;;;;;0.00;0.00;;;;;7.26;60.93;100375.56;5073978;27;45655;-81
2021/12/09 11:08:30;;;;;;;;;0.00;0.00;;;;;7.13;60.81;100379.69;5081595;27;45597;-81
2021/12/09 11:11:05;;;;;;;;;0.25;0.00;;;;;7.06;61.69;100370.91;5078394;27;46157;-80
2021/12/09 11:13:54;;;;;;;;;0.00;0.00;;;;;7.06;61.32;100371.78;5086833;27;45430;-80
2021/12/09 11:16:28;;;;;;;;;0.00;0.00;;;;;7.02;61.30;100354.47;5082241;27;45420;-81
2021/12/09 11:19:20;;;;;;;;;0.00;0.00;;;;;7.27;61.62;100364.34;5078150;27;45247;-81
2021/12/09 11:21:55;;;;;;;;;0.00;0.00;;;;;7.35;61.16;100366.22;5088438;27;46379;-81
2021/12/09 11:24:22;;;;;;;;;0.00;0.00;;;;;7.41;60.99;100364.59;5089489;27;45531;-81
2021/12/09 11:26:56;;;;;;;;;0.00;0.00;;;;;7.40;60.99;100353.34;5075341;27;45444;-79
2021/12/09 11:29:38;;;;;;;;;0.00;0.00;;;;;7.46;60.77;100348.28;5081796;27;45897;-79
2021/12/09 11:34:52;;;;;;;;;0.00;0.00;;;;;7.66;60.59;100354.59;5083650;27;45543;-80
2021/12/09 11:39:52;;;;;;;;;0.00;0.00;;;;;7.58;59.85;100323.38;5083257;27;45366;-78
2021/12/09 11:42:37;;;;;;;;;0.00;0.00;;;;;7.58;60.29;100316.50;5077622;27;45894;-80
2021/12/09 11:45:05;;;;;;;;;0.00;0.00;;;;;7.75;60.71;100344.34;5081265;27;45421;-80
2021/12/09 11:47:31;;;;;;;;;0.00;0.00;;;;;7.79;60.76;100343.56;5082288;27;45831;-80
2021/12/09 11:49:56;;;;;;;;;0.00;0.00;;;;;7.80;60.09;100342.69;5083409;27;47642;-80